Chester, Oklahoma
Current Conditions -  °F | °C
As of 10:55 AM on Tuesday 27 Jan 2015 (Local Time) from KWWR Reporting Station
Clear Clear  
Wind Chill: 61°   Ceiling: Unl
Heat Index: 61°   Visibility: 10mi
Dew Point: 34°   Wind: 10mph
Humidity: 36%   Direction: 230°SW
Pressure: 30.2"   Gusts: NA
Location:  36.22°N, 98.92°W
Report Text: KWWR 271655Z AUTO 23009KT 10SM CLR 16/01 A3020 RMK AO2
Loading
Personal Weather Stations






























Interactive Weather Map New forecast layout! Learn more

10-Day Weather Forecast

Advertisements
Track Severe Weather on mobile